Liberty, Washington
Current Conditions -  °F | °C
As of 6:53 PM on Thursday 27 Nov 2014 (Local Time) from KELN Reporting Station
Scattered Clouds Scattered Clouds  
Wind Chill: 41°   Ceiling: Unl
Heat Index: 44°   Visibility: 10mi
Dew Point: 40°   Wind: 6mph
Humidity: 85%   Direction: 80°E
Pressure: 29.74"   Gusts: NA
Location:  47.3367°N, 121.023°W
Report Text: KELN 280253Z AUTO 08005KT 10SM SCT060 07/04 A2974 RMK AO2 SLP080 T00670044 58007
Loading
Personal Weather Stations






























Interactive Weather Map New forecast layout! Learn more

10-Day Weather Forecast

Advertisements
Track Severe Weather on mobile